createdAt,value
2019-03-22T00:00:15.207Z,7.69
2019-03-22T00:01:15.186Z,7.69
2019-03-22T00:02:15.167Z,7.70
2019-03-22T00:03:15.158Z,7.73
2019-03-22T00:04:15.138Z,7.75
2019-03-22T00:05:15.185Z,7.72
2019-03-22T00:06:15.189Z,7.82
2019-03-22T00:07:15.170Z,7.80
2019-03-22T00:08:15.131Z,7.90
2019-03-22T00:09:15.140Z,7.91
2019-03-22T00:10:15.080Z,7.87
2019-03-22T00:11:15.063Z,7.82
2019-03-22T00:12:15.064Z,7.87
2019-03-22T00:13:15.080Z,7.88
2019-03-22T00:14:15.033Z,8.08
2019-03-22T00:15:15.049Z,7.97
2019-03-22T00:16:15.009Z,7.97
2019-03-22T00:17:15.016Z,8.08
2019-03-22T00:18:14.981Z,8.15
2019-03-22T00:19:14.974Z,8.13
2019-03-22T00:20:14.978Z,8.20
2019-03-22T00:21:14.958Z,8.24
2019-03-22T00:22:14.949Z,8.30
2019-03-22T00:23:14.949Z,8.31
2019-03-22T00:24:14.923Z,8.33
2019-03-22T00:25:14.901Z,8.36
2019-03-22T00:26:14.894Z,8.37
2019-03-22T00:27:16.741Z,8.34
2019-03-22T00:28:14.893Z,8.46
2019-03-22T00:29:14.863Z,8.56
2019-03-22T00:30:14.863Z,8.64
2019-03-22T00:31:14.867Z,8.70
2019-03-22T00:32:14.832Z,8.73
2019-03-22T00:33:14.847Z,8.82
2019-03-22T00:34:14.837Z,8.82
2019-03-22T00:35:14.840Z,8.87
2019-03-22T00:36:14.781Z,8.78
2019-03-22T00:37:14.793Z,8.95
2019-03-22T00:38:14.757Z,8.91
2019-03-22T00:39:14.763Z,8.94
2019-03-22T00:40:14.765Z,9.00
2019-03-22T00:41:14.744Z,8.95
2019-03-22T00:42:14.721Z,9.11
2019-03-22T00:43:14.750Z,8.95
2019-03-22T00:44:14.690Z,9.13
2019-03-22T00:45:14.697Z,9.08
2019-03-22T00:46:14.697Z,9.16
2019-03-22T00:47:14.666Z,9.25
2019-03-22T00:48:14.691Z,9.25
2019-03-22T00:49:14.635Z,9.19
2019-03-22T00:50:14.632Z,9.21
2019-03-22T00:51:14.616Z,9.28
2019-03-22T00:52:14.606Z,9.31
2019-03-22T00:53:14.605Z,9.26
2019-03-22T00:54:14.699Z,9.28
2019-03-22T00:55:14.595Z,9.40
2019-03-22T00:56:14.566Z,9.31
2019-03-22T00:57:14.554Z,9.36
2019-03-22T00:58:14.540Z,9.28
2019-03-22T00:59:14.531Z,9.28
2019-03-22T01:00:14.527Z,9.44
2019-03-22T01:01:14.504Z,9.41
2019-03-22T01:02:14.514Z,9.41
2019-03-22T01:03:14.487Z,9.44
2019-03-22T01:04:14.565Z,9.40
2019-03-22T01:05:14.482Z,9.46
2019-03-22T01:06:14.495Z,9.50
2019-03-22T01:07:14.446Z,9.50
2019-03-22T01:08:14.427Z,9.55
2019-03-22T01:09:14.431Z,9.55
2019-03-22T01:10:14.419Z,9.51
2019-03-22T01:11:14.405Z,9.48
2019-03-22T01:12:14.408Z,9.58
2019-03-22T01:13:14.367Z,9.51
2019-03-22T01:14:14.472Z,9.58
2019-03-22T01:15:14.354Z,9.58
2019-03-22T01:16:14.340Z,9.55
2019-03-22T01:17:14.412Z,9.50
2019-03-22T01:18:14.315Z,9.55
2019-03-22T01:19:14.322Z,9.61
2019-03-22T01:20:14.290Z,9.50
2019-03-22T01:21:14.288Z,9.56
2019-03-22T01:22:14.274Z,9.64
2019-03-22T01:23:14.270Z,9.51
2019-03-22T01:24:14.253Z,9.59
2019-03-22T01:25:14.243Z,9.56
2019-03-22T01:26:14.226Z,9.51
2019-03-22T01:27:14.220Z,9.59
2019-03-22T01:28:14.266Z,9.56
2019-03-22T01:29:14.199Z,9.58
2019-03-22T01:30:14.180Z,9.64
2019-03-22T01:31:14.178Z,9.62
2019-03-22T01:32:14.157Z,9.58
2019-03-22T01:33:14.158Z,9.76
2019-03-22T01:34:14.173Z,9.74
2019-03-22T01:35:14.134Z,9.64
2019-03-22T01:36:14.115Z,9.72
2019-03-22T01:37:14.114Z,9.64
2019-03-22T01:38:14.104Z,9.76
2019-03-22T01:39:14.128Z,9.72
2019-03-22T01:40:14.074Z,9.76
2019-03-22T01:41:14.075Z,9.77
2019-03-22T01:42:14.060Z,9.77
2019-03-22T01:43:14.039Z,9.74
2019-03-22T01:44:14.039Z,9.73
2019-03-22T01:45:14.073Z,9.76
2019-03-22T01:46:14.005Z,9.82
2019-03-22T01:47:20.745Z,9.89
2019-03-22T01:48:13.988Z,9.89
2019-03-22T01:49:13.985Z,9.87
2019-03-22T01:50:13.987Z,9.83
2019-03-22T01:51:13.952Z,9.82
2019-03-22T01:52:13.954Z,9.87
2019-03-22T01:53:13.935Z,9.92
2019-03-22T01:54:13.925Z,9.92
2019-03-22T01:55:13.923Z,9.87
2019-03-22T01:56:13.924Z,9.92
2019-03-22T01:57:13.892Z,9.95
2019-03-22T01:58:13.867Z,9.98
2019-03-22T01:59:13.861Z,10.01
2019-03-22T02:00:13.856Z,9.94
2019-03-22T02:01:13.856Z,10.02
2019-03-22T02:02:13.832Z,9.99
2019-03-22T02:03:13.840Z,9.94
2019-03-22T02:04:13.814Z,10.04
2019-03-22T02:05:13.790Z,9.99
2019-03-22T02:06:13.796Z,9.89
2019-03-22T02:07:13.801Z,9.98
2019-03-22T02:08:13.791Z,9.99
2019-03-22T02:09:13.766Z,9.98
2019-03-22T02:10:13.783Z,10.04
2019-03-22T02:11:13.731Z,9.99
2019-03-22T02:12:13.735Z,10.09
2019-03-22T02:13:13.715Z,10.01
2019-03-22T02:14:13.692Z,10.07
2019-03-22T02:15:13.681Z,10.05
2019-03-22T02:16:13.717Z,10.07
2019-03-22T02:17:13.672Z,10.04
2019-03-22T02:18:13.663Z,10.09
2019-03-22T02:19:13.674Z,10.07
2019-03-22T02:20:13.626Z,10.13
2019-03-22T02:21:13.625Z,10.09
2019-03-22T02:22:13.621Z,10.07
2019-03-22T02:23:13.607Z,10.02
2019-03-22T02:24:13.586Z,10.04
2019-03-22T02:25:13.578Z,10.05
2019-03-22T02:26:13.621Z,10.12
2019-03-22T02:27:13.625Z,10.15
2019-03-22T02:28:13.538Z,10.07
2019-03-22T02:29:13.538Z,10.05
2019-03-22T02:30:13.549Z,10.13
2019-03-22T02:31:13.530Z,10.09
2019-03-22T02:32:13.498Z,10.12
2019-03-22T02:33:13.502Z,10.10
2019-03-22T02:34:13.494Z,10.13
2019-03-22T02:35:27.362Z,10.05
2019-03-22T02:36:14.462Z,10.05
2019-03-22T02:37:13.441Z,10.13
2019-03-22T02:38:13.433Z,10.10
2019-03-22T02:39:13.489Z,10.16
2019-03-22T02:40:13.419Z,10.13
2019-03-22T02:41:13.407Z,10.19
2019-03-22T02:42:13.395Z,10.12
2019-03-22T02:43:13.382Z,10.07
2019-03-22T02:44:13.379Z,10.09
2019-03-22T02:45:13.374Z,10.16
2019-03-22T02:46:13.348Z,10.01
2019-03-22T02:47:13.345Z,10.04
2019-03-22T02:48:13.317Z,10.04
2019-03-22T02:49:13.304Z,10.02
2019-03-22T02:50:18.505Z,10.10
2019-03-22T02:51:14.315Z,10.07
2019-03-22T02:52:13.282Z,10.19
2019-03-22T02:53:13.284Z,10.01
2019-03-22T02:54:13.250Z,10.09
2019-03-22T02:55:13.262Z,10.15
2019-03-22T02:56:13.399Z,10.09
2019-03-22T02:57:13.229Z,10.15
2019-03-22T02:58:20.580Z,10.10
2019-03-22T02:59:14.199Z,10.17
2019-03-22T03:00:13.213Z,10.19
2019-03-22T03:01:13.172Z,10.13
2019-03-22T03:02:13.239Z,10.13
2019-03-22T03:03:13.175Z,10.01
2019-03-22T03:04:13.159Z,10.12
2019-03-22T03:05:13.182Z,10.04
2019-03-22T03:06:13.125Z,10.15
2019-03-22T03:07:13.130Z,10.19
2019-03-22T03:08:13.108Z,10.15
2019-03-22T03:09:13.092Z,10.15
2019-03-22T03:10:13.101Z,10.12
2019-03-22T03:11:13.074Z,10.15
2019-03-22T03:12:13.058Z,10.25
2019-03-22T03:13:13.133Z,10.13
2019-03-22T03:14:13.038Z,10.23
2019-03-22T03:15:13.041Z,10.20
2019-03-22T03:16:13.033Z,10.16
2019-03-22T03:17:12.998Z,10.22
2019-03-22T03:18:12.996Z,10.17
2019-03-22T03:19:13.004Z,10.15
2019-03-22T03:20:12.985Z,10.20
2019-03-22T03:21:12.963Z,10.13
2019-03-22T03:22:12.957Z,10.15
2019-03-22T03:23:12.928Z,10.13
2019-03-22T03:24:12.922Z,10.17
2019-03-22T03:25:12.927Z,10.16
2019-03-22T03:26:12.920Z,10.22
2019-03-22T03:27:12.896Z,10.13
2019-03-22T03:28:12.878Z,10.15
2019-03-22T03:29:12.874Z,10.16
2019-03-22T03:30:12.863Z,10.13
2019-03-22T03:31:12.839Z,10.05
2019-03-22T03:32:12.866Z,10.12
2019-03-22T03:33:12.820Z,10.05
2019-03-22T03:34:12.822Z,10.12
2019-03-22T03:35:12.848Z,10.05
2019-03-22T03:36:12.789Z,10.12
2019-03-22T03:37:12.780Z,10.07
2019-03-22T03:38:12.768Z,10.09
2019-03-22T03:39:12.785Z,10.10
2019-03-22T03:40:12.742Z,10.07
2019-03-22T03:41:12.748Z,10.10
2019-03-22T03:42:13.828Z,10.04
2019-03-22T03:43:12.720Z,10.02
2019-03-22T03:44:12.712Z,10.09
2019-03-22T03:45:12.698Z,10.05
2019-03-22T03:46:12.703Z,10.10
2019-03-22T03:47:12.689Z,10.10
2019-03-22T03:48:12.692Z,10.12
2019-03-22T03:49:12.684Z,10.04
2019-03-22T03:50:12.657Z,10.15
2019-03-22T03:51:12.633Z,10.10
2019-03-22T03:52:12.669Z,10.13
2019-03-22T03:53:12.615Z,10.12
2019-03-22T03:54:12.600Z,10.09
2019-03-22T03:55:12.589Z,10.12
2019-03-22T03:56:12.590Z,10.09
2019-03-22T03:57:12.563Z,10.02
2019-03-22T03:58:12.569Z,9.98
2019-03-22T03:59:12.555Z,9.99
2019-03-22T04:00:12.526Z,9.94
2019-03-22T04:01:12.517Z,9.99
2019-03-22T04:02:12.539Z,10.02
2019-03-22T04:03:12.518Z,9.98
2019-03-22T04:04:12.485Z,10.01
2019-03-22T04:05:14.510Z,9.99
2019-03-22T04:06:12.457Z,10.01
2019-03-22T04:07:12.459Z,10.01
2019-03-22T04:08:12.446Z,9.99
2019-03-22T04:09:12.436Z,9.97
2019-03-22T04:10:12.421Z,9.89
2019-03-22T04:11:12.422Z,10.02
2019-03-22T04:12:12.393Z,10.01
2019-03-22T04:13:12.389Z,9.95
2019-03-22T04:14:12.366Z,9.89
2019-03-22T04:15:12.370Z,9.95
2019-03-22T04:16:12.370Z,9.91
2019-03-22T04:17:12.333Z,9.89
2019-03-22T04:18:12.327Z,9.98
2019-03-22T04:19:12.326Z,9.94
2019-03-22T04:20:12.329Z,9.99
2019-03-22T04:21:12.293Z,9.99
2019-03-22T04:22:12.287Z,10.01
2019-03-22T04:23:12.268Z,9.99
2019-03-22T04:24:12.278Z,9.99
2019-03-22T04:25:12.314Z,9.97
2019-03-22T04:26:12.282Z,10.01
2019-03-22T04:27:12.226Z,10.02
2019-03-22T04:28:12.236Z,10.01
2019-03-22T04:29:12.213Z,10.02
2019-03-22T04:30:12.198Z,10.04
2019-03-22T04:31:12.209Z,10.04
2019-03-22T04:32:12.171Z,9.99
2019-03-22T04:33:12.191Z,10.01
2019-03-22T04:34:12.152Z,10.07
2019-03-22T04:35:12.196Z,9.98
2019-03-22T04:36:12.225Z,10.05
2019-03-22T04:37:12.145Z,9.99
2019-03-22T04:38:12.737Z,9.94
2019-03-22T04:39:12.105Z,10.02
2019-03-22T04:40:12.127Z,9.98
2019-03-22T04:41:12.075Z,9.95
2019-03-22T04:42:12.076Z,9.99
2019-03-22T04:43:12.078Z,9.89
2019-03-22T04:44:12.059Z,10.01
2019-03-22T04:45:12.736Z,9.95
2019-03-22T04:46:12.018Z,9.99
2019-03-22T04:47:12.006Z,10.04
2019-03-22T04:48:12.033Z,9.99
2019-03-22T04:49:11.985Z,9.97
2019-03-22T04:50:11.970Z,9.97
2019-03-22T04:51:11.960Z,9.97
2019-03-22T04:52:11.979Z,10.05
2019-03-22T04:53:11.958Z,10.01
2019-03-22T04:54:11.927Z,10.02
2019-03-22T04:55:11.921Z,10.04
2019-03-22T04:56:11.907Z,9.99
2019-03-22T04:57:11.896Z,10.07
2019-03-22T04:58:11.940Z,10.04
2019-03-22T04:59:18.854Z,10.09
2019-03-22T05:00:12.866Z,10.09
2019-03-22T05:01:12.791Z,10.07
2019-03-22T05:02:11.844Z,10.04
2019-03-22T05:03:11.827Z,10.13
2019-03-22T05:04:11.847Z,10.07
2019-03-22T05:05:11.819Z,10.07
2019-03-22T05:06:11.834Z,10.13
2019-03-22T05:07:11.808Z,10.09
2019-03-22T05:08:11.785Z,10.10
2019-03-22T05:09:11.795Z,10.05
2019-03-22T05:10:11.764Z,10.07
2019-03-22T05:11:11.797Z,10.16
2019-03-22T05:12:14.170Z,10.15
2019-03-22T05:13:11.727Z,10.13
2019-03-22T05:14:11.725Z,10.01
2019-03-22T05:15:11.699Z,10.12
2019-03-22T05:16:11.696Z,10.05
2019-03-22T05:17:11.707Z,10.13
2019-03-22T05:18:11.676Z,10.13
2019-03-22T05:19:11.662Z,10.16
2019-03-22T05:20:11.650Z,10.07
2019-03-22T05:21:11.638Z,10.04
2019-03-22T05:22:11.656Z,10.09
2019-03-22T05:23:11.645Z,10.04
2019-03-22T05:24:11.649Z,10.13
2019-03-22T05:25:11.601Z,10.09
2019-03-22T05:26:11.602Z,10.12
2019-03-22T05:27:11.572Z,10.13
2019-03-22T05:28:11.568Z,10.05
2019-03-22T05:29:11.577Z,10.16
2019-03-22T05:30:11.545Z,10.16
2019-03-22T05:31:11.528Z,10.12
2019-03-22T05:32:11.528Z,10.16
2019-03-22T05:33:11.515Z,10.20
2019-03-22T05:34:11.529Z,10.17
2019-03-22T05:35:11.485Z,10.13
2019-03-22T05:36:11.475Z,10.15
2019-03-22T05:37:11.492Z,10.17
2019-03-22T05:38:11.463Z,10.23
2019-03-22T05:39:11.455Z,10.19
2019-03-22T05:40:11.448Z,10.22
2019-03-22T05:41:13.696Z,10.19
2019-03-22T05:42:11.410Z,10.17
2019-03-22T05:43:11.454Z,10.20
2019-03-22T05:44:11.398Z,10.10
2019-03-22T05:45:11.377Z,10.10
2019-03-22T05:46:11.373Z,10.16
2019-03-22T05:47:11.383Z,10.20
2019-03-22T05:48:26.316Z,10.10
2019-03-22T05:49:11.365Z,10.16
2019-03-22T05:50:11.322Z,10.20
2019-03-22T05:51:11.321Z,10.15
2019-03-22T05:52:11.315Z,10.15
2019-03-22T05:53:11.296Z,10.15
2019-03-22T05:54:11.273Z,10.16
2019-03-22T05:55:11.297Z,10.12
2019-03-22T05:56:11.261Z,10.13
2019-03-22T05:57:13.777Z,10.15
2019-03-22T05:58:11.227Z,10.17
2019-03-22T05:59:11.220Z,10.20
2019-03-22T06:00:11.218Z,10.10
2019-03-22T06:01:11.218Z,10.15
2019-03-22T06:02:11.204Z,10.20
2019-03-22T06:03:11.190Z,10.22
2019-03-22T06:04:11.166Z,10.17
2019-03-22T06:05:11.162Z,10.19
2019-03-22T06:06:11.249Z,10.12
2019-03-22T06:07:11.212Z,10.19
2019-03-22T06:08:11.138Z,10.15
2019-03-22T06:09:11.121Z,10.13
2019-03-22T06:10:11.108Z,10.17
2019-03-22T06:11:11.089Z,10.22
2019-03-22T06:12:11.099Z,10.17
2019-03-22T06:13:11.138Z,10.19
2019-03-22T06:14:11.055Z,10.34
2019-03-22T06:15:11.055Z,10.20
2019-03-22T06:16:11.034Z,10.25
2019-03-22T06:17:11.021Z,10.41
2019-03-22T06:18:11.034Z,10.28
2019-03-22T06:19:11.035Z,10.35
2019-03-22T06:20:10.994Z,10.34
2019-03-22T06:21:11.000Z,10.40
2019-03-22T06:22:10.996Z,10.33
2019-03-22T06:23:10.980Z,10.31
2019-03-22T06:24:10.960Z,10.35
2019-03-22T06:25:10.955Z,10.35
2019-03-22T06:26:10.931Z,10.37
2019-03-22T06:27:10.911Z,10.40
2019-03-22T06:28:11.777Z,10.34
2019-03-22T06:29:12.276Z,10.31
2019-03-22T06:30:10.887Z,10.38
2019-03-22T06:31:10.894Z,10.42
2019-03-22T06:32:10.871Z,10.49
2019-03-22T06:33:10.855Z,10.49
2019-03-22T06:34:10.843Z,10.53
2019-03-22T06:35:10.930Z,10.40
2019-03-22T06:36:10.841Z,10.57
2019-03-22T06:37:10.812Z,10.44
2019-03-22T06:38:10.799Z,10.56
2019-03-22T06:39:10.787Z,10.49
2019-03-22T06:40:10.780Z,10.56
2019-03-22T06:41:10.793Z,10.53
2019-03-22T06:42:10.776Z,10.44
2019-03-22T06:43:10.741Z,10.30
2019-03-22T06:44:10.729Z,10.37
2019-03-22T06:45:10.764Z,10.37
2019-03-22T06:46:10.731Z,10.41
2019-03-22T06:47:11.249Z,10.34
2019-03-22T06:48:10.696Z,10.40
2019-03-22T06:49:10.672Z,10.35
2019-03-22T06:50:10.658Z,10.30
2019-03-22T06:51:10.655Z,10.35
2019-03-22T06:52:10.642Z,10.37
2019-03-22T06:53:10.671Z,10.40
2019-03-22T06:54:10.631Z,10.38
2019-03-22T06:55:10.613Z,10.41
2019-03-22T06:56:10.600Z,10.35
2019-03-22T06:57:10.582Z,10.35
2019-03-22T06:58:10.588Z,10.35
2019-03-22T06:59:10.589Z,10.40
2019-03-22T07:00:10.571Z,10.40
2019-03-22T07:01:10.542Z,10.35
2019-03-22T07:02:10.530Z,10.40
2019-03-22T07:03:10.518Z,10.40
2019-03-22T07:04:10.511Z,10.35
2019-03-22T07:05:10.528Z,10.35
2019-03-22T07:06:10.487Z,10.40
2019-03-22T07:07:10.491Z,10.44
2019-03-22T07:08:10.459Z,10.51
2019-03-22T07:09:10.460Z,10.41
2019-03-22T07:10:10.434Z,10.48
2019-03-22T07:11:10.458Z,10.49
2019-03-22T07:12:10.426Z,10.49
2019-03-22T07:13:10.412Z,10.53
2019-03-22T07:14:10.393Z,10.51
2019-03-22T07:15:10.476Z,10.54
2019-03-22T07:16:10.405Z,10.51
2019-03-22T07:17:10.370Z,10.54
2019-03-22T07:18:10.360Z,10.59
2019-03-22T07:19:10.350Z,10.54
2019-03-22T07:20:10.347Z,10.61
2019-03-22T07:21:10.335Z,10.57
2019-03-22T07:22:10.331Z,10.57
2019-03-22T07:23:10.299Z,10.68
2019-03-22T07:24:10.295Z,10.60
2019-03-22T07:25:10.320Z,10.60
2019-03-22T07:26:10.270Z,10.56
2019-03-22T07:27:10.278Z,10.64
2019-03-22T07:28:10.251Z,10.61
2019-03-22T07:29:10.271Z,10.57
2019-03-22T07:30:18.628Z,10.63
2019-03-22T07:31:11.241Z,10.59
2019-03-22T07:32:10.205Z,10.57
2019-03-22T07:33:10.211Z,10.60
2019-03-22T07:34:10.175Z,10.74
2019-03-22T07:35:10.204Z,10.56
2019-03-22T07:36:10.186Z,10.67
2019-03-22T07:37:10.146Z,10.71
2019-03-22T07:38:10.134Z,10.67
2019-03-22T07:39:10.124Z,10.68
2019-03-22T07:40:10.128Z,10.59
2019-03-22T07:41:10.121Z,10.60
2019-03-22T07:42:10.124Z,10.61
2019-03-22T07:43:10.087Z,10.63
2019-03-22T07:44:10.067Z,10.67
2019-03-22T07:45:10.075Z,10.56
2019-03-22T07:46:10.047Z,10.68
2019-03-22T07:47:10.050Z,10.72
2019-03-22T07:48:10.084Z,10.79
2019-03-22T07:49:12.831Z,10.92
2019-03-22T07:50:10.005Z,10.84
2019-03-22T07:51:09.992Z,10.90
2019-03-22T07:52:09.989Z,10.81
2019-03-22T07:53:09.966Z,10.89
2019-03-22T07:54:10.002Z,10.82
2019-03-22T07:55:09.941Z,10.87
2019-03-22T07:56:09.938Z,10.96
2019-03-22T07:57:09.966Z,10.99
2019-03-22T07:58:09.925Z,11.00
2019-03-22T07:59:10.094Z,10.97
2019-03-22T08:00:09.920Z,11.07
2019-03-22T08:01:09.936Z,11.11
2019-03-22T08:02:09.914Z,11.00
2019-03-22T08:03:09.858Z,10.94
2019-03-22T08:04:09.865Z,11.00
2019-03-22T08:05:09.842Z,11.04
2019-03-22T08:06:09.844Z,11.02
2019-03-22T08:07:09.830Z,11.08
2019-03-22T08:08:09.879Z,11.15
2019-03-22T08:09:09.836Z,11.05
2019-03-22T08:10:09.810Z,11.10
2019-03-22T08:11:09.820Z,11.05
2019-03-22T08:12:09.759Z,10.96
2019-03-22T08:13:09.771Z,10.96
2019-03-22T08:14:09.821Z,10.96
2019-03-22T08:15:09.751Z,10.94
2019-03-22T08:16:20.849Z,11.00
2019-03-22T08:17:09.726Z,10.92
2019-03-22T08:18:09.688Z,10.96
2019-03-22T08:19:09.777Z,11.00
2019-03-22T08:20:09.683Z,10.94
2019-03-22T08:21:09.717Z,11.04
2019-03-22T08:22:09.679Z,11.02
2019-03-22T08:23:09.643Z,11.04
2019-03-22T08:24:09.626Z,11.15
2019-03-22T08:25:09.651Z,11.18
2019-03-22T08:26:09.633Z,11.15
2019-03-22T08:27:09.600Z,11.14
2019-03-22T08:28:09.678Z,11.14
2019-03-22T08:29:09.590Z,11.19
2019-03-22T08:30:09.616Z,11.17
2019-03-22T08:31:09.569Z,11.15
2019-03-22T08:32:09.594Z,11.11
2019-03-22T08:33:09.528Z,11.05
2019-03-22T08:34:09.600Z,11.07
2019-03-22T08:35:09.536Z,10.96
2019-03-22T08:36:09.522Z,11.07
2019-03-22T08:37:09.486Z,10.94
2019-03-22T08:38:09.517Z,10.97
2019-03-22T08:39:09.490Z,10.97
2019-03-22T08:40:09.470Z,11.02
2019-03-22T08:41:09.440Z,10.94
2019-03-22T08:42:09.494Z,10.99
2019-03-22T08:43:09.448Z,10.97
2019-03-22T08:44:09.435Z,10.92
2019-03-22T08:45:11.407Z,10.86
2019-03-22T08:46:09.400Z,10.84
2019-03-22T08:47:09.399Z,11.04
2019-03-22T08:48:09.395Z,11.08
2019-03-22T08:49:09.816Z,11.02
2019-03-22T08:50:09.353Z,11.00
2019-03-22T08:51:09.356Z,11.07
2019-03-22T08:52:09.389Z,11.00
2019-03-22T08:53:09.303Z,11.08
2019-03-22T08:54:09.376Z,11.02
2019-03-22T08:55:09.301Z,11.05
2019-03-22T08:56:09.317Z,10.97
2019-03-22T08:57:09.318Z,10.96
2019-03-22T08:58:09.369Z,10.93
2019-03-22T08:59:09.249Z,11.04
2019-03-22T09:00:09.282Z,11.08
2019-03-22T09:01:09.258Z,11.19
2019-03-22T09:02:09.245Z,11.15
2019-03-22T09:03:09.235Z,11.11
2019-03-22T09:04:09.192Z,11.18
2019-03-22T09:05:09.168Z,11.30
2019-03-22T09:06:09.165Z,11.25
2019-03-22T09:07:09.217Z,11.40
2019-03-22T09:08:09.162Z,11.47
2019-03-22T09:09:09.171Z,11.48
2019-03-22T09:10:09.175Z,11.40
2019-03-22T09:11:09.134Z,11.43
2019-03-22T09:12:09.131Z,11.52
2019-03-22T09:13:09.196Z,11.44
2019-03-22T09:14:09.079Z,11.52
2019-03-22T09:15:09.108Z,11.60
2019-03-22T09:16:09.073Z,11.63
2019-03-22T09:17:09.062Z,11.57
2019-03-22T09:18:09.042Z,11.57
2019-03-22T09:19:09.078Z,11.57
2019-03-22T09:20:09.036Z,11.50
2019-03-22T09:21:09.028Z,11.37
2019-03-22T09:22:09.286Z,11.30
2019-03-22T09:23:09.006Z,11.35
2019-03-22T09:24:09.001Z,11.27
2019-03-22T09:25:08.974Z,11.14
2019-03-22T09:26:08.967Z,11.11
2019-03-22T09:27:08.964Z,11.05
2019-03-22T09:28:10.356Z,11.19
2019-03-22T09:29:08.929Z,11.22
2019-03-22T09:30:08.996Z,11.29
2019-03-22T09:31:10.771Z,11.27
2019-03-22T09:32:08.895Z,11.40
2019-03-22T09:33:08.942Z,11.51
2019-03-22T09:34:08.927Z,11.52
2019-03-22T09:35:08.851Z,11.72
2019-03-22T09:36:08.830Z,11.63
2019-03-22T09:37:09.165Z,11.72
2019-03-22T09:38:13.205Z,11.73
2019-03-22T09:39:08.800Z,11.73
2019-03-22T09:40:08.853Z,11.51
2019-03-22T09:41:08.826Z,11.44
2019-03-22T09:42:08.801Z,11.40
2019-03-22T09:43:08.778Z,11.32
2019-03-22T09:44:08.765Z,11.32
2019-03-22T09:45:08.831Z,11.23
2019-03-22T09:46:08.859Z,11.19
2019-03-22T09:47:08.863Z,11.22
2019-03-22T09:48:08.720Z,11.11
2019-03-22T09:49:08.705Z,11.18
2019-03-22T09:50:08.711Z,11.19
2019-03-22T09:51:08.712Z,11.30
2019-03-22T09:52:08.671Z,11.30
2019-03-22T09:53:08.658Z,11.32
2019-03-22T09:54:08.640Z,11.37
2019-03-22T09:55:13.993Z,11.35
2019-03-22T09:56:09.685Z,11.30
2019-03-22T09:57:08.622Z,11.44
2019-03-22T09:58:08.583Z,11.47
2019-03-22T09:59:08.585Z,11.48
2019-03-22T10:00:08.581Z,11.57
2019-03-22T10:01:08.619Z,11.62
2019-03-22T10:02:08.551Z,11.66
2019-03-22T10:03:08.620Z,11.68
2019-03-22T10:04:08.536Z,11.70
2019-03-22T10:05:08.520Z,11.73
2019-03-22T10:06:08.547Z,11.84
2019-03-22T10:07:08.499Z,11.78
2019-03-22T10:08:08.510Z,11.73
2019-03-22T10:09:08.542Z,11.75
2019-03-22T10:10:08.470Z,11.81
2019-03-22T10:11:08.466Z,11.66
2019-03-22T10:12:08.482Z,11.70
2019-03-22T10:13:08.558Z,11.66
2019-03-22T10:14:08.433Z,11.68
2019-03-22T10:15:08.392Z,11.59
2019-03-22T10:16:08.393Z,11.43
2019-03-22T10:17:08.427Z,11.14
2019-03-22T10:18:08.492Z,11.11
2019-03-22T10:19:08.375Z,11.02
2019-03-22T10:20:08.392Z,10.97
2019-03-22T10:21:21.513Z,11.04
2019-03-22T10:22:09.356Z,11.11
2019-03-22T10:23:08.339Z,11.15
2019-03-22T10:24:08.368Z,11.18
2019-03-22T10:25:08.361Z,11.15
2019-03-22T10:26:08.310Z,11.19
2019-03-22T10:27:08.270Z,11.15
2019-03-22T10:28:08.270Z,11.18
2019-03-22T10:29:08.261Z,11.15
2019-03-22T10:30:08.333Z,11.11
2019-03-22T10:31:08.336Z,11.25
2019-03-22T10:32:08.241Z,11.23
2019-03-22T10:34:04.531Z,11.25
2019-03-22T10:35:04.544Z,11.17
2019-03-22T10:36:04.482Z,11.19
2019-03-22T10:37:04.502Z,11.14
2019-03-22T10:38:06.337Z,11.05
2019-03-22T10:39:05.440Z,11.12
2019-03-22T10:40:04.502Z,11.17
2019-03-22T10:41:04.496Z,11.27
2019-03-22T10:42:04.480Z,11.48
2019-03-22T10:43:04.443Z,11.40
2019-03-22T10:44:04.542Z,11.29
2019-03-22T10:45:04.387Z,11.47
2019-03-22T10:46:04.411Z,11.55
2019-03-22T10:47:04.401Z,11.66
2019-03-22T10:48:04.414Z,11.83
2019-03-22T10:49:04.383Z,11.69
2019-03-22T10:50:04.444Z,11.63
2019-03-22T10:51:04.340Z,11.70
2019-03-22T10:52:04.689Z,11.88
2019-03-22T10:53:04.405Z,11.94
2019-03-22T10:54:04.435Z,11.77
2019-03-22T10:55:23.508Z,11.81
2019-03-22T10:56:05.257Z,11.73
2019-03-22T10:57:04.256Z,11.83
2019-03-22T10:58:04.287Z,11.83
2019-03-22T10:59:04.265Z,11.68
2019-03-22T11:00:04.232Z,11.43
2019-03-22T11:01:04.214Z,11.33
2019-03-22T11:02:07.456Z,11.29
2019-03-22T11:03:04.192Z,11.14
2019-03-22T11:05:04.464Z,11.18
2019-03-22T11:06:04.175Z,11.22
2019-03-22T11:07:04.183Z,11.18
2019-03-22T11:08:04.133Z,11.10
2019-03-22T11:09:04.127Z,11.00
2019-03-22T11:10:04.122Z,11.00
2019-03-22T11:11:04.135Z,11.05
2019-03-22T11:12:11.866Z,11.14
2019-03-22T11:13:05.145Z,11.14
2019-03-22T11:14:04.103Z,11.23
2019-03-22T11:15:04.065Z,11.30
2019-03-22T11:16:04.082Z,11.30
2019-03-22T11:17:04.080Z,11.30
2019-03-22T11:18:04.031Z,11.32
2019-03-22T11:19:04.025Z,11.25
2019-03-22T11:20:04.003Z,11.23
2019-03-22T11:21:05.491Z,11.35
2019-03-22T11:22:04.002Z,11.47
2019-03-22T11:23:04.017Z,11.43
2019-03-22T11:24:03.964Z,11.63
2019-03-22T11:25:04.914Z,11.65
2019-03-22T11:26:04.604Z,11.47
2019-03-22T11:27:03.951Z,11.29
2019-03-22T11:28:03.911Z,11.30
2019-03-22T11:29:03.952Z,11.30
2019-03-22T11:30:03.911Z,11.44
2019-03-22T11:31:04.988Z,11.57
2019-03-22T11:32:12.310Z,11.52
2019-03-22T11:33:04.876Z,11.60
2019-03-22T11:34:03.902Z,11.60
2019-03-22T11:35:03.887Z,11.55
2019-03-22T11:36:03.842Z,11.68
2019-03-22T11:37:03.820Z,11.62
2019-03-22T11:38:03.816Z,11.87
2019-03-22T11:39:03.801Z,11.73
2019-03-22T11:40:03.828Z,11.72
2019-03-22T11:41:03.792Z,11.77
2019-03-22T11:42:03.765Z,11.86
2019-03-22T11:43:08.503Z,12.06
2019-03-22T11:44:04.750Z,12.09
2019-03-22T11:45:03.740Z,12.25
2019-03-22T11:46:03.739Z,12.36
2019-03-22T11:47:03.707Z,12.43
2019-03-22T11:48:03.698Z,12.13
2019-03-22T11:49:03.707Z,12.06
2019-03-22T11:50:03.710Z,12.10
2019-03-22T11:51:03.706Z,12.04
2019-03-22T11:52:03.665Z,11.91
2019-03-22T11:53:03.646Z,11.94
2019-03-22T11:54:03.645Z,12.10
2019-03-22T11:55:03.627Z,12.12
2019-03-22T11:56:03.616Z,11.73
2019-03-22T11:57:03.906Z,11.66
2019-03-22T11:58:03.603Z,11.70
2019-03-22T11:59:03.577Z,11.69
2019-03-22T12:00:03.568Z,11.66
2019-03-22T12:01:03.559Z,11.69
2019-03-22T12:02:03.599Z,11.55
2019-03-22T12:03:03.542Z,11.26
2019-03-22T12:04:03.539Z,11.27
2019-03-22T12:05:03.515Z,11.27
2019-03-22T12:06:03.579Z,11.17
2019-03-22T12:07:03.502Z,11.26
2019-03-22T12:08:03.512Z,11.26
2019-03-22T12:09:03.482Z,11.40
2019-03-22T12:10:03.496Z,11.47
2019-03-22T12:11:03.486Z,11.68
2019-03-22T12:12:03.438Z,11.75
2019-03-22T12:13:03.446Z,11.72
2019-03-22T12:14:03.422Z,11.69
2019-03-22T12:15:03.411Z,11.47
2019-03-22T12:16:03.406Z,11.52
2019-03-22T12:17:03.407Z,11.50
2019-03-22T12:18:03.388Z,11.50
2019-03-22T12:19:03.419Z,11.62
2019-03-22T12:20:03.354Z,11.63
2019-03-22T12:21:03.363Z,11.78
2019-03-22T12:22:03.332Z,11.84
2019-03-22T12:23:03.322Z,11.91
2019-03-22T12:24:03.313Z,12.07
2019-03-22T12:25:03.326Z,12.18
2019-03-22T12:26:03.316Z,12.04
2019-03-22T12:27:03.283Z,12.03
2019-03-22T12:28:03.275Z,12.04
2019-03-22T12:29:03.261Z,12.12
2019-03-22T12:30:03.288Z,12.17
2019-03-22T12:31:03.234Z,12.22
2019-03-22T12:32:03.243Z,12.29
2019-03-22T12:33:03.210Z,12.50
2019-03-22T12:34:04.248Z,12.64
2019-03-22T12:35:03.190Z,12.54
2019-03-22T12:36:03.223Z,12.76
2019-03-22T12:37:03.166Z,12.82
2019-03-22T12:38:03.174Z,12.90
2019-03-22T12:39:03.145Z,12.79
2019-03-22T12:40:03.135Z,12.60
2019-03-22T12:41:03.148Z,12.46
2019-03-22T12:42:03.107Z,12.28
2019-03-22T12:43:03.098Z,12.13
2019-03-22T12:44:03.118Z,12.09
2019-03-22T12:45:03.080Z,12.02
2019-03-22T12:46:03.095Z,12.06
2019-03-22T12:47:03.123Z,12.17
2019-03-22T12:48:03.043Z,12.25
2019-03-22T12:49:03.057Z,12.37
2019-03-22T12:50:03.017Z,12.49
2019-03-22T12:51:03.013Z,12.64
2019-03-22T12:52:03.034Z,12.54
2019-03-22T12:53:02.991Z,12.54
2019-03-22T12:54:02.988Z,12.47
2019-03-22T12:55:02.968Z,12.49
2019-03-22T12:56:02.949Z,12.45
2019-03-22T12:57:02.943Z,12.36
2019-03-22T12:58:02.962Z,12.35
2019-03-22T12:59:02.951Z,12.36